sensor_id;sensor_type;location;lat;lon;timestamp;temperature;humidity
3592;DHT22;1810;48.720;9.094;2023-12-20T00:01:48;6.40;99.90
3592;DHT22;1810;48.720;9.094;2023-12-20T00:04:19;6.50;99.90
3592;DHT22;1810;48.720;9.094;2023-12-20T00:06:47;6.60;99.90
3592;DHT22;1810;48.720;9.094;2023-12-20T00:09:15;6.60;99.90
3592;DHT22;1810;48.720;9.094;2023-12-20T00:11:44;6.50;99.90
3592;DHT22;1810;48.720;9.094;2023-12-20T00:14:13;6.40;99.90
3592;DHT22;1810;48.720;9.094;2023-12-20T00:16:40;6.50;99.90
3592;DHT22;1810;48.720;9.094;2023-12-20T00:19:08;6.50;99.90
3592;DHT22;1810;48.720;9.094;2023-12-20T00:21:38;6.50;99.90
3592;DHT22;1810;48.720;9.094;2023-12-20T00:24:07;6.50;99.90
3592;DHT22;1810;48.720;9.094;2023-12-20T00:26:35;6.50;99.90
3592;DHT22;1810;48.720;9.094;2023-12-20T00:29:03;6.50;99.90
3592;DHT22;1810;48.720;9.094;2023-12-20T00:31:32;6.50;99.90
3592;DHT22;1810;48.720;9.094;2023-12-20T00:34:00;6.50;99.90
3592;DHT22;1810;48.720;9.094;2023-12-20T00:36:28;6.50;99.90
3592;DHT22;1810;48.720;9.094;2023-12-20T00:38:58;6.40;99.90
3592;DHT22;1810;48.720;9.094;2023-12-20T00:41:26;6.50;99.90
3592;DHT22;1810;48.720;9.094;2023-12-20T00:43:54;6.40;99.90
3592;DHT22;1810;48.720;9.094;2023-12-20T00:46:23;6.30;99.90
3592;DHT22;1810;48.720;9.094;2023-12-20T00:48:51;6.30;99.90
3592;DHT22;1810;48.720;9.094;2023-12-20T00:51:20;6.30;99.90
3592;DHT22;1810;48.720;9.094;2023-12-20T00:53:50;6.30;99.90
3592;DHT22;1810;48.720;9.094;2023-12-20T00:56:23;6.30;99.90
3592;DHT22;1810;48.720;9.094;2023-12-20T00:58:51;6.40;99.90
3592;DHT22;1810;48.720;9.094;2023-12-20T01:01:19;6.30;99.90
3592;DHT22;1810;48.720;9.094;2023-12-20T01:03:48;6.30;99.90
3592;DHT22;1810;48.720;9.094;2023-12-20T01:06:18;6.30;99.90
3592;DHT22;1810;48.720;9.094;2023-12-20T01:08:46;6.20;99.90
3592;DHT22;1810;48.720;9.094;2023-12-20T01:11:15;6.20;99.90
3592;DHT22;1810;48.720;9.094;2023-12-20T01:13:45;6.20;99.90
3592;DHT22;1810;48.720;9.094;2023-12-20T01:16:13;6.10;99.90
3592;DHT22;1810;48.720;9.094;2023-12-20T01:18:41;6.20;99.90
3592;DHT22;1810;48.720;9.094;2023-12-20T01:21:10;6.20;99.90
3592;DHT22;1810;48.720;9.094;2023-12-20T01:23:40;6.20;99.90
3592;DHT22;1810;48.720;9.094;2023-12-20T01:26:08;6.20;99.90
3592;DHT22;1810;48.720;9.094;2023-12-20T01:28:37;6.20;99.90
3592;DHT22;1810;48.720;9.094;2023-12-20T01:31:08;6.20;99.90
3592;DHT22;1810;48.720;9.094;2023-12-20T01:33:36;6.10;99.90
3592;DHT22;1810;48.720;9.094;2023-12-20T01:36:05;6.10;99.90
3592;DHT22;1810;48.720;9.094;2023-12-20T01:38:33;6.10;99.90
3592;DHT22;1810;48.720;9.094;2023-12-20T01:41:02;6.10;99.90
3592;DHT22;1810;48.720;9.094;2023-12-20T01:43:32;6.10;99.90
3592;DHT22;1810;48.720;9.094;2023-12-20T01:46:17;6.10;99.90
3592;DHT22;1810;48.720;9.094;2023-12-20T01:48:47;6.10;99.90
3592;DHT22;1810;48.720;9.094;2023-12-20T01:51:16;6.10;99.90
3592;DHT22;1810;48.720;9.094;2023-12-20T01:53:45;6.10;99.90
3592;DHT22;1810;48.720;9.094;2023-12-20T01:56:14;6.10;99.90
3592;DHT22;1810;48.720;9.094;2023-12-20T01:58:44;6.10;99.90
3592;DHT22;1810;48.720;9.094;2023-12-20T02:01:13;6.10;99.90
3592;DHT22;1810;48.720;9.094;2023-12-20T02:03:43;6.10;99.90
3592;DHT22;1810;48.720;9.094;2023-12-20T02:06:12;6.10;99.90
3592;DHT22;1810;48.720;9.094;2023-12-20T02:08:40;6.10;99.90
3592;DHT22;1810;48.720;9.094;2023-12-20T02:11:08;6.20;99.90
3592;DHT22;1810;48.720;9.094;2023-12-20T02:13:39;6.20;99.90
3592;DHT22;1810;48.720;9.094;2023-12-20T02:16:07;6.10;99.90
3592;DHT22;1810;48.720;9.094;2023-12-20T02:18:35;6.00;99.90
3592;DHT22;1810;48.720;9.094;2023-12-20T02:21:05;6.20;99.90
3592;DHT22;1810;48.720;9.094;2023-12-20T02:23:35;6.20;99.90
3592;DHT22;1810;48.720;9.094;2023-12-20T02:26:04;6.10;99.90
3592;DHT22;1810;48.720;9.094;2023-12-20T02:28:33;6.10;99.90
3592;DHT22;1810;48.720;9.094;2023-12-20T02:31:02;6.10;99.90
3592;DHT22;1810;48.720;9.094;2023-12-20T02:33:31;6.20;99.90
3592;DHT22;1810;48.720;9.094;2023-12-20T02:35:59;6.20;99.90
3592;DHT22;1810;48.720;9.094;2023-12-20T02:38:27;6.20;99.90
3592;DHT22;1810;48.720;9.094;2023-12-20T02:40:57;6.10;99.90
3592;DHT22;1810;48.720;9.094;2023-12-20T02:43:25;6.10;99.90
3592;DHT22;1810;48.720;9.094;2023-12-20T02:45:53;6.20;99.90
3592;DHT22;1810;48.720;9.094;2023-12-20T02:48:22;6.20;99.90
3592;DHT22;1810;48.720;9.094;2023-12-20T02:50:50;6.10;99.90
3592;DHT22;1810;48.720;9.094;2023-12-20T02:53:19;6.20;99.90
3592;DHT22;1810;48.720;9.094;2023-12-20T02:55:47;6.20;99.90
3592;DHT22;1810;48.720;9.094;2023-12-20T02:58:16;6.30;99.90
3592;DHT22;1810;48.720;9.094;2023-12-20T03:00:45;6.20;99.90
3592;DHT22;1810;48.720;9.094;2023-12-20T03:03:14;6.20;99.90
3592;DHT22;1810;48.720;9.094;2023-12-20T03:05:42;6.20;99.90
3592;DHT22;1810;48.720;9.094;2023-12-20T03:08:11;6.30;99.90
3592;DHT22;1810;48.720;9.094;2023-12-20T03:10:40;6.20;99.90
3592;DHT22;1810;48.720;9.094;2023-12-20T03:13:09;6.20;99.90
3592;DHT22;1810;48.720;9.094;2023-12-20T03:15:39;6.20;99.90
3592;DHT22;1810;48.720;9.094;2023-12-20T03:18:07;6.30;99.90
3592;DHT22;1810;48.720;9.094;2023-12-20T03:20:35;6.10;99.90
3592;DHT22;1810;48.720;9.094;2023-12-20T03:23:04;6.20;99.90
3592;DHT22;1810;48.720;9.094;2023-12-20T03:25:32;6.20;99.90
3592;DHT22;1810;48.720;9.094;2023-12-20T03:28:00;6.20;99.90
3592;DHT22;1810;48.720;9.094;2023-12-20T03:30:28;6.20;99.90
3592;DHT22;1810;48.720;9.094;2023-12-20T03:32:58;6.30;99.90
3592;DHT22;1810;48.720;9.094;2023-12-20T03:35:26;6.20;99.90
3592;DHT22;1810;48.720;9.094;2023-12-20T03:37:54;6.10;99.90
3592;DHT22;1810;48.720;9.094;2023-12-20T03:40:24;6.10;99.90
3592;DHT22;1810;48.720;9.094;2023-12-20T03:42:52;6.20;99.90
3592;DHT22;1810;48.720;9.094;2023-12-20T03:45:20;6.20;99.90
3592;DHT22;1810;48.720;9.094;2023-12-20T03:47:48;6.20;99.90
3592;DHT22;1810;48.720;9.094;2023-12-20T03:50:18;6.20;99.90
3592;DHT22;1810;48.720;9.094;2023-12-20T03:52:47;6.20;99.90
3592;DHT22;1810;48.720;9.094;2023-12-20T03:55:16;6.10;99.90
3592;DHT22;1810;48.720;9.094;2023-12-20T03:57:44;6.10;99.90
3592;DHT22;1810;48.720;9.094;2023-12-20T04:00:14;6.00;99.90
3592;DHT22;1810;48.720;9.094;2023-12-20T04:02:43;6.10;99.90
3592;DHT22;1810;48.720;9.094;2023-12-20T04:05:11;6.00;99.90
3592;DHT22;1810;48.720;9.094;2023-12-20T04:07:41;6.00;99.90
3592;DHT22;1810;48.720;9.094;2023-12-20T04:10:11;5.90;99.90
3592;DHT22;1810;48.720;9.094;2023-12-20T04:12:39;5.90;99.90
3592;DHT22;1810;48.720;9.094;2023-12-20T04:15:08;5.80;99.90
3592;DHT22;1810;48.720;9.094;2023-12-20T04:17:38;5.70;99.90
3592;DHT22;1810;48.720;9.094;2023-12-20T04:20:08;5.80;99.90
3592;DHT22;1810;48.720;9.094;2023-12-20T04:22:37;5.80;99.90
3592;DHT22;1810;48.720;9.094;2023-12-20T04:25:08;5.80;99.90
3592;DHT22;1810;48.720;9.094;2023-12-20T04:27:36;5.80;99.90
3592;DHT22;1810;48.720;9.094;2023-12-20T04:30:06;5.70;99.90
3592;DHT22;1810;48.720;9.094;2023-12-20T04:32:36;5.80;99.90
3592;DHT22;1810;48.720;9.094;2023-12-20T04:35:04;5.80;99.90
3592;DHT22;1810;48.720;9.094;2023-12-20T04:37:34;5.80;99.90
3592;DHT22;1810;48.720;9.094;2023-12-20T04:40:02;5.90;99.90
3592;DHT22;1810;48.720;9.094;2023-12-20T04:42:34;5.80;99.90
3592;DHT22;1810;48.720;9.094;2023-12-20T04:45:02;5.80;99.90
3592;DHT22;1810;48.720;9.094;2023-12-20T04:47:33;5.80;99.90
3592;DHT22;1810;48.720;9.094;2023-12-20T04:50:02;5.80;99.90
3592;DHT22;1810;48.720;9.094;2023-12-20T04:52:31;5.90;99.90
3592;DHT22;1810;48.720;9.094;2023-12-20T04:54:59;5.90;99.90
3592;DHT22;1810;48.720;9.094;2023-12-20T04:57:28;5.80;99.90
3592;DHT22;1810;48.720;9.094;2023-12-20T04:59:58;5.90;99.90
3592;DHT22;1810;48.720;9.094;2023-12-20T05:02:26;5.90;99.90
3592;DHT22;1810;48.720;9.094;2023-12-20T05:04:55;5.90;99.90
3592;DHT22;1810;48.720;9.094;2023-12-20T05:07:23;5.90;99.90
3592;DHT22;1810;48.720;9.094;2023-12-20T05:09:51;5.80;99.90
3592;DHT22;1810;48.720;9.094;2023-12-20T05:12:20;5.90;99.90
3592;DHT22;1810;48.720;9.094;2023-12-20T05:14:48;5.90;99.90
3592;DHT22;1810;48.720;9.094;2023-12-20T05:17:18;5.80;99.90
3592;DHT22;1810;48.720;9.094;2023-12-20T05:19:47;5.80;99.90
3592;DHT22;1810;48.720;9.094;2023-12-20T05:22:15;5.90;99.90
3592;DHT22;1810;48.720;9.094;2023-12-20T05:24:44;5.80;99.90
3592;DHT22;1810;48.720;9.094;2023-12-20T05:27:12;5.80;99.90
3592;DHT22;1810;48.720;9.094;2023-12-20T05:29:40;5.80;99.90
3592;DHT22;1810;48.720;9.094;2023-12-20T05:32:08;5.80;99.90
3592;DHT22;1810;48.720;9.094;2023-12-20T05:34:39;5.80;99.90
3592;DHT22;1810;48.720;9.094;2023-12-20T05:37:07;5.80;99.90
3592;DHT22;1810;48.720;9.094;2023-12-20T05:39:35;5.80;99.90
3592;DHT22;1810;48.720;9.094;2023-12-20T05:42:04;5.90;99.90
3592;DHT22;1810;48.720;9.094;2023-12-20T05:44:33;5.80;99.90
3592;DHT22;1810;48.720;9.094;2023-12-20T05:47:02;5.80;99.90
3592;DHT22;1810;48.720;9.094;2023-12-20T05:49:31;5.80;99.90
3592;DHT22;1810;48.720;9.094;2023-12-20T05:52:01;5.80;99.90
3592;DHT22;1810;48.720;9.094;2023-12-20T05:54:29;5.80;99.90
3592;DHT22;1810;48.720;9.094;2023-12-20T05:56:58;5.80;99.90
3592;DHT22;1810;48.720;9.094;2023-12-20T05:59:27;5.70;99.90
3592;DHT22;1810;48.720;9.094;2023-12-20T06:01:56;5.70;99.90
3592;DHT22;1810;48.720;9.094;2023-12-20T06:04:24;5.80;99.90
3592;DHT22;1810;48.720;9.094;2023-12-20T06:06:53;5.70;99.90
3592;DHT22;1810;48.720;9.094;2023-12-20T06:09:22;5.80;99.90
3592;DHT22;1810;48.720;9.094;2023-12-20T06:11:50;5.80;99.90
3592;DHT22;1810;48.720;9.094;2023-12-20T06:14:19;5.80;99.90
3592;DHT22;1810;48.720;9.094;2023-12-20T06:16:47;5.80;99.90
3592;DHT22;1810;48.720;9.094;2023-12-20T06:19:15;5.90;99.90
3592;DHT22;1810;48.720;9.094;2023-12-20T06:21:43;5.80;99.90
3592;DHT22;1810;48.720;9.094;2023-12-20T06:24:12;5.80;99.90
3592;DHT22;1810;48.720;9.094;2023-12-20T06:26:41;5.80;99.90
3592;DHT22;1810;48.720;9.094;2023-12-20T06:29:09;5.80;99.90
3592;DHT22;1810;48.720;9.094;2023-12-20T06:31:37;5.90;99.90
3592;DHT22;1810;48.720;9.094;2023-12-20T06:34:06;5.80;99.90
3592;DHT22;1810;48.720;9.094;2023-12-20T06:36:34;5.80;99.90
3592;DHT22;1810;48.720;9.094;2023-12-20T06:39:03;5.80;99.90
3592;DHT22;1810;48.720;9.094;2023-12-20T06:41:31;5.90;99.90
3592;DHT22;1810;48.720;9.094;2023-12-20T06:44:01;5.80;99.90
3592;DHT22;1810;48.720;9.094;2023-12-20T06:46:30;5.80;99.90
3592;DHT22;1810;48.720;9.094;2023-12-20T06:48:57;5.80;99.90
3592;DHT22;1810;48.720;9.094;2023-12-20T06:51:25;5.90;99.90
3592;DHT22;1810;48.720;9.094;2023-12-20T06:53:54;5.80;99.90
3592;DHT22;1810;48.720;9.094;2023-12-20T06:56:22;5.90;99.90
3592;DHT22;1810;48.720;9.094;2023-12-20T06:58:50;5.90;99.90
3592;DHT22;1810;48.720;9.094;2023-12-20T07:01:20;5.90;99.90
3592;DHT22;1810;48.720;9.094;2023-12-20T07:03:49;5.90;99.90
3592;DHT22;1810;48.720;9.094;2023-12-20T07:06:17;6.00;99.90
3592;DHT22;1810;48.720;9.094;2023-12-20T07:08:46;5.90;99.90
3592;DHT22;1810;48.720;9.094;2023-12-20T07:11:14;6.00;99.90
3592;DHT22;1810;48.720;9.094;2023-12-20T07:13:43;6.00;99.90
3592;DHT22;1810;48.720;9.094;2023-12-20T07:16:12;6.10;99.90
3592;DHT22;1810;48.720;9.094;2023-12-20T07:18:43;6.00;99.90
3592;DHT22;1810;48.720;9.094;2023-12-20T07:21:11;6.00;99.90
3592;DHT22;1810;48.720;9.094;2023-12-20T07:23:40;6.00;99.90
3592;DHT22;1810;48.720;9.094;2023-12-20T07:26:08;6.10;99.90
3592;DHT22;1810;48.720;9.094;2023-12-20T07:28:36;6.10;99.90
3592;DHT22;1810;48.720;9.094;2023-12-20T07:31:04;6.00;99.90
3592;DHT22;1810;48.720;9.094;2023-12-20T07:33:33;6.00;99.90
3592;DHT22;1810;48.720;9.094;2023-12-20T07:36:07;5.90;99.90
3592;DHT22;1810;48.720;9.094;2023-12-20T07:38:35;5.70;99.90
3592;DHT22;1810;48.720;9.094;2023-12-20T07:41:04;5.70;99.90
3592;DHT22;1810;48.720;9.094;2023-12-20T07:43:32;5.70;99.90
3592;DHT22;1810;48.720;9.094;2023-12-20T07:46:03;5.60;99.90
3592;DHT22;1810;48.720;9.094;2023-12-20T07:48:34;5.50;99.90
3592;DHT22;1810;48.720;9.094;2023-12-20T07:51:03;5.50;99.90
3592;DHT22;1810;48.720;9.094;2023-12-20T07:53:34;5.40;99.90
3592;DHT22;1810;48.720;9.094;2023-12-20T07:56:12;5.40;99.90
3592;DHT22;1810;48.720;9.094;2023-12-20T07:58:42;5.40;99.90
3592;DHT22;1810;48.720;9.094;2023-12-20T08:01:19;5.30;99.90
3592;DHT22;1810;48.720;9.094;2023-12-20T08:03:48;5.30;99.90
3592;DHT22;1810;48.720;9.094;2023-12-20T08:06:17;5.40;99.90
3592;DHT22;1810;48.720;9.094;2023-12-20T08:08:47;5.40;99.90
3592;DHT22;1810;48.720;9.094;2023-12-20T08:11:27;5.40;99.90
3592;DHT22;1810;48.720;9.094;2023-12-20T08:13:57;5.40;99.90
3592;DHT22;1810;48.720;9.094;2023-12-20T08:16:25;5.30;99.90
3592;DHT22;1810;48.720;9.094;2023-12-20T08:18:54;5.40;99.90
3592;DHT22;1810;48.720;9.094;2023-12-20T08:21:23;5.40;99.90
3592;DHT22;1810;48.720;9.094;2023-12-20T08:23:52;5.40;99.90
3592;DHT22;1810;48.720;9.094;2023-12-20T08:26:21;5.30;99.90
3592;DHT22;1810;48.720;9.094;2023-12-20T08:28:50;5.40;99.90
3592;DHT22;1810;48.720;9.094;2023-12-20T08:31:19;5.50;99.90
3592;DHT22;1810;48.720;9.094;2023-12-20T08:33:48;5.50;99.90
3592;DHT22;1810;48.720;9.094;2023-12-20T08:36:20;5.60;99.90
3592;DHT22;1810;48.720;9.094;2023-12-20T08:38:52;5.50;99.90
3592;DHT22;1810;48.720;9.094;2023-12-20T08:41:22;5.50;99.90
3592;DHT22;1810;48.720;9.094;2023-12-20T08:43:50;5.60;99.90
3592;DHT22;1810;48.720;9.094;2023-12-20T08:46:18;5.50;99.90
3592;DHT22;1810;48.720;9.094;2023-12-20T08:48:47;5.50;99.90
3592;DHT22;1810;48.720;9.094;2023-12-20T08:51:16;5.50;99.90
3592;DHT22;1810;48.720;9.094;2023-12-20T08:53:44;5.50;99.90
3592;DHT22;1810;48.720;9.094;2023-12-20T08:56:16;5.40;99.90
3592;DHT22;1810;48.720;9.094;2023-12-20T08:58:45;5.30;99.90
3592;DHT22;1810;48.720;9.094;2023-12-20T09:01:13;5.30;99.90
3592;DHT22;1810;48.720;9.094;2023-12-20T09:03:42;5.30;99.90
3592;DHT22;1810;48.720;9.094;2023-12-20T09:06:11;5.30;99.90
3592;DHT22;1810;48.720;9.094;2023-12-20T09:08:38;5.30;99.90
3592;DHT22;1810;48.720;9.094;2023-12-20T09:11:07;5.30;99.90
3592;DHT22;1810;48.720;9.094;2023-12-20T09:13:37;5.20;99.90
3592;DHT22;1810;48.720;9.094;2023-12-20T09:16:05;5.20;99.90
3592;DHT22;1810;48.720;9.094;2023-12-20T09:18:34;5.10;99.90
3592;DHT22;1810;48.720;9.094;2023-12-20T09:21:02;5.10;99.90
3592;DHT22;1810;48.720;9.094;2023-12-20T09:23:30;5.20;99.90
3592;DHT22;1810;48.720;9.094;2023-12-20T09:25:59;5.20;99.90
3592;DHT22;1810;48.720;9.094;2023-12-20T09:28:27;5.20;99.90
3592;DHT22;1810;48.720;9.094;2023-12-20T09:30:57;5.20;99.90
3592;DHT22;1810;48.720;9.094;2023-12-20T09:33:26;5.20;99.90
3592;DHT22;1810;48.720;9.094;2023-12-20T09:35:54;5.10;99.90
3592;DHT22;1810;48.720;9.094;2023-12-20T09:38:22;5.10;99.90
3592;DHT22;1810;48.720;9.094;2023-12-20T09:40:51;5.20;99.90
3592;DHT22;1810;48.720;9.094;2023-12-20T09:43:24;5.20;99.90
3592;DHT22;1810;48.720;9.094;2023-12-20T09:45:59;5.30;99.90
3592;DHT22;1810;48.720;9.094;2023-12-20T09:48:29;5.30;99.90
3592;DHT22;1810;48.720;9.094;2023-12-20T09:50:58;5.30;99.90
3592;DHT22;1810;48.720;9.094;2023-12-20T09:53:28;5.30;99.90
3592;DHT22;1810;48.720;9.094;2023-12-20T09:55:58;5.20;99.90
3592;DHT22;1810;48.720;9.094;2023-12-20T09:58:28;5.20;99.90
3592;DHT22;1810;48.720;9.094;2023-12-20T10:00:58;5.30;99.90
3592;DHT22;1810;48.720;9.094;2023-12-20T10:03:26;5.30;99.90
3592;DHT22;1810;48.720;9.094;2023-12-20T10:05:57;5.30;99.90
3592;DHT22;1810;48.720;9.094;2023-12-20T10:08:25;5.20;99.90
3592;DHT22;1810;48.720;9.094;2023-12-20T10:10:54;5.40;99.90
3592;DHT22;1810;48.720;9.094;2023-12-20T10:13:25;5.50;99.90
3592;DHT22;1810;48.720;9.094;2023-12-20T10:15:55;5.70;99.90
3592;DHT22;1810;48.720;9.094;2023-12-20T10:18:25;5.80;99.90
3592;DHT22;1810;48.720;9.094;2023-12-20T10:21:05;5.90;99.90
3592;DHT22;1810;48.720;9.094;2023-12-20T10:23:34;6.10;99.90
3592;DHT22;1810;48.720;9.094;2023-12-20T10:26:02;6.20;99.90
3592;DHT22;1810;48.720;9.094;2023-12-20T10:28:33;6.30;99.90
3592;DHT22;1810;48.720;9.094;2023-12-20T10:31:02;6.30;99.90
3592;DHT22;1810;48.720;9.094;2023-12-20T10:33:32;6.30;99.90
3592;DHT22;1810;48.720;9.094;2023-12-20T10:36:01;6.30;99.90
3592;DHT22;1810;48.720;9.094;2023-12-20T10:38:30;6.20;99.90
3592;DHT22;1810;48.720;9.094;2023-12-20T10:41:01;6.20;99.90
3592;DHT22;1810;48.720;9.094;2023-12-20T10:43:33;6.30;99.90
3592;DHT22;1810;48.720;9.094;2023-12-20T10:46:03;6.40;99.90
3592;DHT22;1810;48.720;9.094;2023-12-20T10:48:34;6.40;99.90
3592;DHT22;1810;48.720;9.094;2023-12-20T10:51:05;6.30;99.90
3592;DHT22;1810;48.720;9.094;2023-12-20T10:53:34;6.40;99.90
3592;DHT22;1810;48.720;9.094;2023-12-20T10:56:05;6.40;99.90
3592;DHT22;1810;48.720;9.094;2023-12-20T10:58:36;6.50;99.90
3592;DHT22;1810;48.720;9.094;2023-12-20T11:01:05;6.50;99.90
3592;DHT22;1810;48.720;9.094;2023-12-20T11:03:36;6.40;99.90
3592;DHT22;1810;48.720;9.094;2023-12-20T11:06:15;6.50;99.90
3592;DHT22;1810;48.720;9.094;2023-12-20T11:08:53;6.40;99.90
3592;DHT22;1810;48.720;9.094;2023-12-20T11:11:39;6.40;99.90
3592;DHT22;1810;48.720;9.094;2023-12-20T11:14:19;6.50;99.90
3592;DHT22;1810;48.720;9.094;2023-12-20T11:17:05;6.40;99.90
3592;DHT22;1810;48.720;9.094;2023-12-20T11:19:38;6.50;99.90
3592;DHT22;1810;48.720;9.094;2023-12-20T11:22:32;6.60;99.90
3592;DHT22;1810;48.720;9.094;2023-12-20T11:25:08;6.70;99.90
3592;DHT22;1810;48.720;9.094;2023-12-20T11:27:40;6.70;99.90
3592;DHT22;1810;48.720;9.094;2023-12-20T11:30:11;6.50;99.90
3592;DHT22;1810;48.720;9.094;2023-12-20T11:32:42;6.40;99.90
3592;DHT22;1810;48.720;9.094;2023-12-20T11:35:19;6.40;99.90
3592;DHT22;1810;48.720;9.094;2023-12-20T11:37:48;6.50;99.90
3592;DHT22;1810;48.720;9.094;2023-12-20T11:40:17;6.60;99.90
3592;DHT22;1810;48.720;9.094;2023-12-20T11:42:50;6.60;99.90
3592;DHT22;1810;48.720;9.094;2023-12-20T11:45:21;6.50;99.90
3592;DHT22;1810;48.720;9.094;2023-12-20T11:47:56;6.50;99.90
3592;DHT22;1810;48.720;9.094;2023-12-20T11:50:26;6.50;99.90
3592;DHT22;1810;48.720;9.094;2023-12-20T11:52:55;6.50;99.90
3592;DHT22;1810;48.720;9.094;2023-12-20T11:55:24;6.60;99.90
3592;DHT22;1810;48.720;9.094;2023-12-20T11:57:52;6.50;99.90
3592;DHT22;1810;48.720;9.094;2023-12-20T12:00:21;6.40;99.90
3592;DHT22;1810;48.720;9.094;2023-12-20T12:03:15;6.30;99.90
3592;DHT22;1810;48.720;9.094;2023-12-20T12:05:47;6.30;99.90
3592;DHT22;1810;48.720;9.094;2023-12-20T12:08:15;6.20;99.90
3592;DHT22;1810;48.720;9.094;2023-12-20T12:10:45;6.20;99.90
3592;DHT22;1810;48.720;9.094;2023-12-20T12:13:13;6.20;99.90
3592;DHT22;1810;48.720;9.094;2023-12-20T12:15:42;6.30;99.90
3592;DHT22;1810;48.720;9.094;2023-12-20T12:18:14;6.40;99.90
3592;DHT22;1810;48.720;9.094;2023-12-20T12:20:44;6.50;99.90
3592;DHT22;1810;48.720;9.094;2023-12-20T12:23:14;6.60;99.90
3592;DHT22;1810;48.720;9.094;2023-12-20T12:25:42;6.70;99.90
3592;DHT22;1810;48.720;9.094;2023-12-20T12:28:10;6.80;99.90
3592;DHT22;1810;48.720;9.094;2023-12-20T12:30:39;6.80;99.90
3592;DHT22;1810;48.720;9.094;2023-12-20T12:33:19;6.90;99.90
3592;DHT22;1810;48.720;9.094;2023-12-20T12:35:49;6.80;99.90
3592;DHT22;1810;48.720;9.094;2023-12-20T12:38:20;6.90;99.90
3592;DHT22;1810;48.720;9.094;2023-12-20T12:40:49;6.90;99.90
3592;DHT22;1810;48.720;9.094;2023-12-20T12:43:20;7.00;99.90
3592;DHT22;1810;48.720;9.094;2023-12-20T12:45:50;7.00;99.90
3592;DHT22;1810;48.720;9.094;2023-12-20T12:48:18;7.00;99.90
3592;DHT22;1810;48.720;9.094;2023-12-20T12:50:48;7.00;99.90
3592;DHT22;1810;48.720;9.094;2023-12-20T12:53:18;6.80;99.90
3592;DHT22;1810;48.720;9.094;2023-12-20T12:55:47;6.80;99.90
3592;DHT22;1810;48.720;9.094;2023-12-20T12:58:15;6.80;99.90
3592;DHT22;1810;48.720;9.094;2023-12-20T13:00:43;6.80;99.90
3592;DHT22;1810;48.720;9.094;2023-12-20T13:03:11;6.90;99.90
3592;DHT22;1810;48.720;9.094;2023-12-20T13:05:40;6.90;99.90
3592;DHT22;1810;48.720;9.094;2023-12-20T13:08:14;6.90;99.90
3592;DHT22;1810;48.720;9.094;2023-12-20T13:10:43;6.80;99.90
3592;DHT22;1810;48.720;9.094;2023-12-20T13:13:11;6.80;99.90
3592;DHT22;1810;48.720;9.094;2023-12-20T13:15:40;6.70;99.90
3592;DHT22;1810;48.720;9.094;2023-12-20T13:18:08;6.70;99.90
3592;DHT22;1810;48.720;9.094;2023-12-20T13:20:37;6.70;99.90
3592;DHT22;1810;48.720;9.094;2023-12-20T13:23:06;6.60;99.90
3592;DHT22;1810;48.720;9.094;2023-12-20T13:25:36;6.50;99.90
3592;DHT22;1810;48.720;9.094;2023-12-20T13:28:05;6.40;99.90
3592;DHT22;1810;48.720;9.094;2023-12-20T13:30:33;6.30;99.90
3592;DHT22;1810;48.720;9.094;2023-12-20T13:33:03;6.40;99.90
3592;DHT22;1810;48.720;9.094;2023-12-20T13:35:32;6.30;99.90
3592;DHT22;1810;48.720;9.094;2023-12-20T13:38:02;6.20;99.90
3592;DHT22;1810;48.720;9.094;2023-12-20T13:40:30;6.30;99.90
3592;DHT22;1810;48.720;9.094;2023-12-20T13:43:00;6.20;99.90
3592;DHT22;1810;48.720;9.094;2023-12-20T13:45:29;6.30;99.90
3592;DHT22;1810;48.720;9.094;2023-12-20T13:47:58;6.40;99.90
3592;DHT22;1810;48.720;9.094;2023-12-20T13:50:28;6.50;99.90
3592;DHT22;1810;48.720;9.094;2023-12-20T13:52:56;6.30;99.90
3592;DHT22;1810;48.720;9.094;2023-12-20T13:55:25;6.50;99.90
3592;DHT22;1810;48.720;9.094;2023-12-20T13:57:54;6.30;99.90
3592;DHT22;1810;48.720;9.094;2023-12-20T14:00:24;6.40;99.90
3592;DHT22;1810;48.720;9.094;2023-12-20T14:02:52;6.30;99.90
3592;DHT22;1810;48.720;9.094;2023-12-20T14:05:20;6.30;99.90
3592;DHT22;1810;48.720;9.094;2023-12-20T14:07:54;6.30;99.90
3592;DHT22;1810;48.720;9.094;2023-12-20T14:10:24;6.10;99.90
3592;DHT22;1810;48.720;9.094;2023-12-20T14:12:53;6.00;99.90
3592;DHT22;1810;48.720;9.094;2023-12-20T14:15:24;6.00;99.90
3592;DHT22;1810;48.720;9.094;2023-12-20T14:17:53;6.00;99.90
3592;DHT22;1810;48.720;9.094;2023-12-20T14:20:21;6.00;99.90
3592;DHT22;1810;48.720;9.094;2023-12-20T14:22:50;6.00;99.90
3592;DHT22;1810;48.720;9.094;2023-12-20T14:25:19;6.00;99.90
3592;DHT22;1810;48.720;9.094;2023-12-20T14:27:47;5.90;99.90
3592;DHT22;1810;48.720;9.094;2023-12-20T14:30:16;5.90;99.90
3592;DHT22;1810;48.720;9.094;2023-12-20T14:32:46;5.90;99.90
3592;DHT22;1810;48.720;9.094;2023-12-20T14:35:15;5.90;99.90
3592;DHT22;1810;48.720;9.094;2023-12-20T14:37:44;5.90;99.90
3592;DHT22;1810;48.720;9.094;2023-12-20T14:40:12;5.90;99.90
3592;DHT22;1810;48.720;9.094;2023-12-20T14:42:43;5.90;99.90
3592;DHT22;1810;48.720;9.094;2023-12-20T14:45:12;5.90;99.90
3592;DHT22;1810;48.720;9.094;2023-12-20T14:47:43;5.80;99.90
3592;DHT22;1810;48.720;9.094;2023-12-20T14:50:13;5.80;99.90
3592;DHT22;1810;48.720;9.094;2023-12-20T14:52:45;5.70;99.90
3592;DHT22;1810;48.720;9.094;2023-12-20T14:55:13;5.60;99.90
3592;DHT22;1810;48.720;9.094;2023-12-20T14:57:42;5.70;99.90
3592;DHT22;1810;48.720;9.094;2023-12-20T15:00:11;5.70;99.90
3592;DHT22;1810;48.720;9.094;2023-12-20T15:02:43;5.70;99.90
3592;DHT22;1810;48.720;9.094;2023-12-20T15:05:13;5.60;99.90
3592;DHT22;1810;48.720;9.094;2023-12-20T15:07:42;5.70;99.90
3592;DHT22;1810;48.720;9.094;2023-12-20T15:10:11;5.50;99.90
3592;DHT22;1810;48.720;9.094;2023-12-20T15:12:39;5.40;99.90
3592;DHT22;1810;48.720;9.094;2023-12-20T15:15:08;5.40;99.90
3592;DHT22;1810;48.720;9.094;2023-12-20T15:17:37;5.50;99.90
3592;DHT22;1810;48.720;9.094;2023-12-20T15:20:06;5.50;99.90
3592;DHT22;1810;48.720;9.094;2023-12-20T15:22:38;5.50;99.90
3592;DHT22;1810;48.720;9.094;2023-12-20T15:25:08;5.50;99.90
3592;DHT22;1810;48.720;9.094;2023-12-20T15:27:36;5.40;99.90
3592;DHT22;1810;48.720;9.094;2023-12-20T15:30:06;5.50;99.90
3592;DHT22;1810;48.720;9.094;2023-12-20T15:32:36;5.40;99.90
3592;DHT22;1810;48.720;9.094;2023-12-20T15:35:05;5.30;99.90
3592;DHT22;1810;48.720;9.094;2023-12-20T15:37:37;5.30;99.90
3592;DHT22;1810;48.720;9.094;2023-12-20T15:40:07;5.40;99.90
3592;DHT22;1810;48.720;9.094;2023-12-20T15:42:37;5.40;99.90
3592;DHT22;1810;48.720;9.094;2023-12-20T15:45:06;5.40;99.90
3592;DHT22;1810;48.720;9.094;2023-12-20T15:47:35;5.50;99.90
3592;DHT22;1810;48.720;9.094;2023-12-20T15:50:05;5.40;99.90
3592;DHT22;1810;48.720;9.094;2023-12-20T15:52:34;5.40;99.90
3592;DHT22;1810;48.720;9.094;2023-12-20T15:55:07;5.50;99.90
3592;DHT22;1810;48.720;9.094;2023-12-20T15:57:36;5.40;99.90
3592;DHT22;1810;48.720;9.094;2023-12-20T16:00:19;5.40;99.90
3592;DHT22;1810;48.720;9.094;2023-12-20T16:02:48;5.40;99.90
3592;DHT22;1810;48.720;9.094;2023-12-20T16:05:16;5.30;99.90
3592;DHT22;1810;48.720;9.094;2023-12-20T16:07:45;5.30;99.90
3592;DHT22;1810;48.720;9.094;2023-12-20T16:10:15;5.40;99.90
3592;DHT22;1810;48.720;9.094;2023-12-20T16:12:44;5.40;99.90
3592;DHT22;1810;48.720;9.094;2023-12-20T16:15:12;5.50;99.90
3592;DHT22;1810;48.720;9.094;2023-12-20T16:17:42;5.50;99.90
3592;DHT22;1810;48.720;9.094;2023-12-20T16:20:12;5.40;99.90
3592;DHT22;1810;48.720;9.094;2023-12-20T16:22:41;5.30;99.90
3592;DHT22;1810;48.720;9.094;2023-12-20T16:25:11;5.30;99.90
3592;DHT22;1810;48.720;9.094;2023-12-20T16:27:41;5.30;99.90
3592;DHT22;1810;48.720;9.094;2023-12-20T16:30:13;5.30;99.90
3592;DHT22;1810;48.720;9.094;2023-12-20T16:32:42;5.30;99.90